createdAt,value
2022-08-17T00:02:26.059Z,100452.53
2022-08-17T00:04:55.197Z,100459.81
2022-08-17T00:07:22.416Z,100448.09
2022-08-17T00:09:49.249Z,100455.09
2022-08-17T00:12:42.595Z,100456.78
2022-08-17T00:15:03.805Z,100459.44
2022-08-17T00:17:30.417Z,100462.75
2022-08-17T00:19:57.064Z,100464.94
2022-08-17T00:22:34.028Z,100455.50
2022-08-17T00:25:09.998Z,100449.56
2022-08-17T00:27:36.934Z,100446.91
2022-08-17T00:30:05.795Z,100448.72
2022-08-17T00:33:14.164Z,100452.03
2022-08-17T00:35:31.756Z,100460.28
2022-08-17T00:37:58.443Z,100454.50
2022-08-17T00:40:25.070Z,100459.44
2022-08-17T00:42:53.282Z,100459.81
2022-08-17T00:45:20.401Z,100464.94
2022-08-17T00:47:47.531Z,100458.50
2022-08-17T00:50:18.458Z,100462.81
2022-08-17T00:52:54.171Z,100456.66
2022-08-17T00:55:22.545Z,100462.47
2022-08-17T00:57:55.138Z,100461.63
2022-08-17T01:00:29.556Z,100463.75
2022-08-17T01:03:01.869Z,100467.03
2022-08-17T01:05:31.589Z,100465.94
2022-08-17T01:08:00.247Z,100466.28
2022-08-17T01:10:58.443Z,100459.31
2022-08-17T01:13:40.751Z,100454.66
2022-08-17T01:16:24.360Z,100461.16
2022-08-17T01:18:56.817Z,100460.16
2022-08-17T01:22:01.290Z,100457.66
2022-08-17T01:24:27.991Z,100452.72
2022-08-17T01:26:56.607Z,100454.53
2022-08-17T01:29:25.425Z,100462.81
2022-08-17T01:31:58.724Z,100463.97
2022-08-17T01:34:32.763Z,100462.16
2022-08-17T01:37:10.420Z,100472.06
2022-08-17T01:39:59.036Z,100466.31
2022-08-17T01:42:40.697Z,100471.81
2022-08-17T01:45:16.696Z,100469.66
2022-08-17T01:47:43.389Z,100471.66
2022-08-17T01:50:15.915Z,100474.94
2022-08-17T01:52:45.246Z,100473.78
2022-08-17T01:55:15.020Z,100467.97
2022-08-17T01:57:41.646Z,100464.81
2022-08-17T02:00:10.682Z,100464.13
2022-08-17T02:02:38.013Z,100464.28
2022-08-17T02:05:05.307Z,100465.81
2022-08-17T02:07:32.211Z,100464.81
2022-08-17T02:10:20.331Z,100469.09
2022-08-17T02:12:47.389Z,100468.44
2022-08-17T02:15:15.131Z,100465.81
2022-08-17T02:17:43.129Z,100468.75
2022-08-17T02:20:10.247Z,100468.59
2022-08-17T02:22:40.480Z,100474.09
2022-08-17T02:25:09.602Z,100468.59
2022-08-17T02:27:38.637Z,100477.91
2022-08-17T02:30:59.177Z,100475.28
2022-08-17T02:32:56.178Z,100463.50
2022-08-17T02:35:23.301Z,100468.31
2022-08-17T02:37:51.869Z,100468.13
2022-08-17T02:40:36.003Z,100467.81
2022-08-17T02:43:04.197Z,100464.34
2022-08-17T02:45:30.788Z,100471.00
2022-08-17T02:47:57.508Z,100479.31
2022-08-17T02:50:24.994Z,100484.78
2022-08-17T02:53:02.013Z,100480.81
2022-08-17T02:55:37.057Z,100483.25
2022-08-17T02:58:04.799Z,100488.72
2022-08-17T03:00:35.449Z,100486.25
2022-08-17T03:03:04.622Z,100482.13
2022-08-17T03:05:33.817Z,100487.41
2022-08-17T03:08:00.421Z,100485.09
2022-08-17T03:10:28.129Z,100485.72
2022-08-17T03:12:55.098Z,100492.84
2022-08-17T03:15:26.112Z,100499.16
2022-08-17T03:17:54.357Z,100500.78
2022-08-17T03:20:21.657Z,100508.88
2022-08-17T03:22:53.241Z,100500.13
2022-08-17T03:25:34.414Z,100498.47
2022-08-17T03:28:01.253Z,100499.47
2022-08-17T03:30:28.572Z,100499.47
2022-08-17T03:32:59.940Z,100498.13
2022-08-17T03:35:30.333Z,100498.47
2022-08-17T03:38:00.705Z,100497.97
2022-08-17T03:40:55.463Z,100505.44
2022-08-17T03:43:16.235Z,100503.97
2022-08-17T03:46:01.840Z,100502.66
2022-08-17T03:48:47.453Z,100504.97
2022-08-17T03:51:38.238Z,100507.28
2022-08-17T03:54:24.203Z,100506.63
2022-08-17T03:57:07.263Z,100502.97
2022-08-17T03:59:34.446Z,100507.09
2022-08-17T04:02:11.038Z,100510.06
2022-08-17T04:04:39.111Z,100510.56
2022-08-17T04:07:06.256Z,100504.91
2022-08-17T04:09:32.922Z,100513.53
2022-08-17T04:12:04.523Z,100513.19
2022-08-17T04:14:50.813Z,100509.75
2022-08-17T04:17:22.774Z,100508.94
2022-08-17T04:19:49.416Z,100511.91
2022-08-17T04:22:29.744Z,100516.69
2022-08-17T04:25:06.338Z,100520.66
2022-08-17T04:27:32.968Z,100525.97
2022-08-17T04:29:59.705Z,100521.97
2022-08-17T04:33:05.527Z,100520.31
2022-08-17T04:35:17.336Z,100526.75
2022-08-17T04:37:45.234Z,100520.97
2022-08-17T04:40:30.325Z,100531.06
2022-08-17T04:43:05.541Z,100527.41
2022-08-17T04:45:32.723Z,100523.75
2022-08-17T04:48:00.453Z,100530.53
2022-08-17T04:50:27.569Z,100531.03
2022-08-17T04:52:58.061Z,100542.09
2022-08-17T04:55:24.954Z,100541.78
2022-08-17T04:57:51.569Z,100540.66
2022-08-17T05:00:18.708Z,100537.66
2022-08-17T05:02:49.570Z,100534.63
2022-08-17T05:05:27.668Z,100541.13
2022-08-17T05:07:56.537Z,100544.09
2022-08-17T05:10:24.941Z,100543.44
2022-08-17T05:13:09.701Z,100548.75
2022-08-17T05:15:38.980Z,100552.03
2022-08-17T05:18:12.037Z,100549.25
2022-08-17T05:20:40.268Z,100558.53
2022-08-17T05:23:10.114Z,100562.81
2022-08-17T05:25:41.313Z,100565.50
2022-08-17T05:28:08.720Z,100567.81
2022-08-17T05:30:38.227Z,100564.97
2022-08-17T05:33:08.017Z,100560.84
2022-08-17T05:35:37.943Z,100568.78
2022-08-17T05:38:05.106Z,100563.97
2022-08-17T05:40:32.655Z,100576.53
2022-08-17T05:43:12.843Z,100568.41
2022-08-17T05:45:55.400Z,100576.03
2022-08-17T05:48:39.190Z,100575.69
2022-08-17T05:51:28.356Z,100577.53
2022-08-17T05:54:05.400Z,100578.31
2022-08-17T05:56:48.697Z,100572.16
2022-08-17T05:59:48.314Z,100577.28
2022-08-17T06:02:24.066Z,100576.78
2022-08-17T06:04:59.646Z,100575.75
2022-08-17T06:07:35.128Z,100583.16
2022-08-17T06:10:31.034Z,100583.81
2022-08-17T06:13:09.431Z,100596.09
2022-08-17T06:15:47.644Z,100590.47
2022-08-17T06:18:18.921Z,100587.78
2022-08-17T06:21:00.384Z,100592.97
2022-08-17T06:23:39.101Z,100588.94
2022-08-17T06:26:16.050Z,100587.06
2022-08-17T06:28:59.005Z,100590.38
2022-08-17T06:31:29.156Z,100594.78
2022-08-17T06:33:58.018Z,100603.06
2022-08-17T06:36:35.859Z,100598.13
2022-08-17T06:39:17.504Z,100600.97
2022-08-17T06:42:54.619Z,100600.06
2022-08-17T06:45:14.320Z,100602.28
2022-08-17T06:47:58.859Z,100607.22
2022-08-17T06:50:31.414Z,100602.69
2022-08-17T06:53:03.488Z,100600.84
2022-08-17T06:55:41.340Z,100596.19
2022-08-17T06:58:16.141Z,100601.34
2022-08-17T07:00:47.004Z,100598.78
2022-08-17T07:03:21.017Z,100598.06
2022-08-17T07:06:08.330Z,100605.84
2022-08-17T07:08:55.153Z,100612.72
2022-08-17T07:11:56.395Z,100613.34
2022-08-17T07:14:37.862Z,100610.59
2022-08-17T07:17:14.058Z,100618.84
2022-08-17T07:19:44.026Z,100616.78
2022-08-17T07:22:53.634Z,100620.16
2022-08-17T07:25:22.119Z,100625.75
2022-08-17T07:27:53.034Z,100629.31
2022-08-17T07:30:22.639Z,100625.97
2022-08-17T07:33:13.747Z,100635.34
2022-08-17T07:35:46.277Z,100634.19
2022-08-17T07:38:24.261Z,100630.63
2022-08-17T07:41:05.370Z,100636.09
2022-08-17T07:43:41.056Z,100639.41
2022-08-17T07:46:41.288Z,100637.63
2022-08-17T07:49:11.301Z,100641.78
2022-08-17T07:51:53.636Z,100640.63
2022-08-17T07:54:23.839Z,100634.44
2022-08-17T07:56:54.676Z,100641.75
2022-08-17T07:59:25.602Z,100646.47
2022-08-17T08:01:58.286Z,100642.09
2022-08-17T08:05:06.594Z,100640.31
2022-08-17T08:07:50.389Z,100637.44
2022-08-17T08:10:32.370Z,100636.97
2022-08-17T08:13:07.675Z,100638.00
2022-08-17T08:15:53.855Z,100639.19
2022-08-17T08:18:53.313Z,100639.38
2022-08-17T08:21:35.231Z,100643.78
2022-08-17T08:24:07.723Z,100640.50
2022-08-17T08:26:44.392Z,100642.44
2022-08-17T08:29:29.322Z,100642.41
2022-08-17T08:31:58.965Z,100648.59
2022-08-17T08:35:01.215Z,100642.03
2022-08-17T08:37:47.293Z,100646.84
2022-08-17T08:40:41.219Z,100652.63
2022-08-17T08:43:49.571Z,100651.53
2022-08-17T08:46:47.123Z,100653.81
2022-08-17T08:49:19.716Z,100645.00
2022-08-17T08:51:55.952Z,100659.94
2022-08-17T08:54:28.541Z,100652.97
2022-08-17T08:57:23.894Z,100658.69
2022-08-17T09:00:00.052Z,100660.28
2022-08-17T09:03:02.979Z,100656.72
2022-08-17T09:05:44.709Z,100662.22
2022-08-17T09:08:36.598Z,100660.53
2022-08-17T09:11:22.491Z,100667.84
2022-08-17T09:14:28.221Z,100658.91
2022-08-17T09:17:07.515Z,100662.28
2022-08-17T09:20:01.056Z,100661.22
2022-08-17T09:22:36.272Z,100661.31
2022-08-17T09:25:26.951Z,100663.00
2022-08-17T09:28:05.613Z,100670.06
2022-08-17T09:30:44.137Z,100668.25
2022-08-17T09:33:13.921Z,100660.28
2022-08-17T09:35:49.497Z,100660.84
2022-08-17T09:38:40.490Z,100670.31
2022-08-17T09:41:30.261Z,100662.66
2022-08-17T09:44:23.309Z,100662.81
2022-08-17T09:46:50.517Z,100655.47
2022-08-17T09:49:37.549Z,100648.19
2022-08-17T09:52:25.911Z,100654.53
2022-08-17T09:54:54.589Z,100653.66
2022-08-17T09:57:32.312Z,100648.03
2022-08-17T10:00:13.409Z,100648.03
2022-08-17T10:03:04.765Z,100647.38
2022-08-17T10:05:56.305Z,100646.16
2022-08-17T10:08:36.658Z,100651.00
2022-08-17T10:11:15.411Z,100655.94
2022-08-17T10:14:37.282Z,100645.50
2022-08-17T10:17:19.567Z,100655.41
2022-08-17T10:19:59.281Z,100656.31
2022-08-17T10:22:53.446Z,100653.91
2022-08-17T10:25:56.474Z,100669.75
2022-08-17T10:28:30.110Z,100659.16
2022-08-17T10:31:30.954Z,100667.59
2022-08-17T10:34:17.320Z,100655.69
2022-08-17T10:36:47.957Z,100668.19
2022-08-17T10:39:22.066Z,100660.19
2022-08-17T10:41:53.878Z,100658.53
2022-08-17T10:44:41.336Z,100660.16
2022-08-17T10:47:10.436Z,100663.28
2022-08-17T10:49:39.458Z,100665.25
2022-08-17T10:52:26.267Z,100667.41
2022-08-17T10:54:56.708Z,100659.59
2022-08-17T10:57:34.573Z,100664.25
2022-08-17T11:00:05.904Z,100668.94
2022-08-17T11:02:49.346Z,100657.34
2022-08-17T11:05:46.627Z,100668.78
2022-08-17T11:08:21.896Z,100666.22
2022-08-17T11:11:10.251Z,100667.75
2022-08-17T11:13:45.658Z,100669.09
2022-08-17T11:16:12.369Z,100667.59
2022-08-17T11:19:10.025Z,100661.66
2022-08-17T11:21:47.447Z,100663.53
2022-08-17T11:24:36.112Z,100663.38
2022-08-17T11:27:29.436Z,100665.41
2022-08-17T11:30:04.793Z,100667.75
2022-08-17T11:32:52.058Z,100670.09
2022-08-17T11:35:21.420Z,100664.00
2022-08-17T11:38:20.441Z,100669.59
2022-08-17T11:41:10.354Z,100672.56
2022-08-17T11:43:58.531Z,100677.72
2022-08-17T11:46:59.292Z,100670.94
2022-08-17T11:50:12.197Z,100685.84
2022-08-17T11:52:45.971Z,100689.25
2022-08-17T11:55:36.356Z,100684.41
2022-08-17T11:58:23.968Z,100678.28
2022-08-17T12:00:56.596Z,100691.63
2022-08-17T12:03:26.372Z,100681.31
2022-08-17T12:06:05.247Z,100679.50
2022-08-17T12:08:33.983Z,100676.22
2022-08-17T12:11:07.307Z,100672.72
2022-08-17T12:13:43.500Z,100671.13
2022-08-17T12:16:18.562Z,100675.22
2022-08-17T12:18:58.510Z,100669.84
2022-08-17T12:21:45.066Z,100667.78
2022-08-17T12:24:29.287Z,100673.19
2022-08-17T12:26:59.434Z,100658.13
2022-08-17T12:29:35.129Z,100659.41
2022-08-17T12:32:06.831Z,100667.22
2022-08-17T12:34:42.997Z,100668.22
2022-08-17T12:37:18.571Z,100678.09
2022-08-17T12:39:55.375Z,100681.53
2022-08-17T12:42:34.820Z,100673.97
2022-08-17T12:45:01.493Z,100674.75
2022-08-17T12:47:31.856Z,100674.44
2022-08-17T12:50:08.156Z,100676.28
2022-08-17T12:52:59.700Z,100681.97
2022-08-17T12:55:32.464Z,100672.97
2022-08-17T12:58:01.863Z,100679.06
2022-08-17T13:00:34.710Z,100682.63
2022-08-17T13:03:07.684Z,100672.53
2022-08-17T13:06:00.723Z,100680.97
2022-08-17T13:08:36.053Z,100676.22
2022-08-17T13:11:06.360Z,100682.22
2022-08-17T13:13:35.962Z,100676.47
2022-08-17T13:16:27.517Z,100677.28
2022-08-17T13:19:09.282Z,100673.78
2022-08-17T13:21:37.865Z,100678.28
2022-08-17T13:24:19.450Z,100672.53
2022-08-17T13:26:49.030Z,100669.66
2022-08-17T13:29:29.351Z,100670.28
2022-08-17T13:32:16.049Z,100680.72
2022-08-17T13:35:13.766Z,100677.19
2022-08-17T13:37:42.636Z,100679.91
2022-08-17T13:40:09.391Z,100673.94
2022-08-17T13:42:52.141Z,100673.16
2022-08-17T13:45:36.315Z,100664.47
2022-08-17T13:48:15.885Z,100662.00
2022-08-17T13:50:48.225Z,100677.03
2022-08-17T13:53:31.193Z,100667.78
2022-08-17T13:56:02.425Z,100658.13
2022-08-17T13:58:33.152Z,100665.56
2022-08-17T14:01:39.166Z,100660.00
2022-08-17T14:04:17.999Z,100664.53
2022-08-17T14:06:55.837Z,100660.84
2022-08-17T14:09:28.151Z,100658.56
2022-08-17T14:11:56.791Z,100660.44
2022-08-17T14:14:24.506Z,100665.53
2022-08-17T14:16:54.618Z,100659.56
2022-08-17T14:19:24.535Z,100656.91
2022-08-17T14:21:58.840Z,100652.59
2022-08-17T14:24:25.439Z,100661.44
2022-08-17T14:26:52.979Z,100661.66
2022-08-17T14:29:24.697Z,100661.03
2022-08-17T14:31:54.353Z,100665.16
2022-08-17T14:34:22.198Z,100659.41
2022-08-17T14:36:48.909Z,100655.09
2022-08-17T14:39:17.057Z,100659.81
2022-08-17T14:41:43.976Z,100661.66
2022-08-17T14:44:13.055Z,100663.25
2022-08-17T14:46:41.481Z,100661.63
2022-08-17T14:49:12.064Z,100666.16
2022-08-17T14:51:43.876Z,100666.59
2022-08-17T14:54:12.079Z,100666.81
2022-08-17T14:57:23.118Z,100663.31
2022-08-17T14:59:45.676Z,100671.94
2022-08-17T15:02:13.132Z,100670.47
2022-08-17T15:04:44.965Z,100666.50
2022-08-17T15:07:12.290Z,100656.66
2022-08-17T15:09:39.085Z,100650.69
2022-08-17T15:12:06.742Z,100653.13
2022-08-17T15:14:35.433Z,100642.63
2022-08-17T15:17:05.618Z,100656.44
2022-08-17T15:19:32.257Z,100655.03
2022-08-17T15:21:58.810Z,100663.03
2022-08-17T15:24:25.515Z,100661.88
2022-08-17T15:26:52.151Z,100666.56
2022-08-17T15:29:18.719Z,100672.91
2022-08-17T15:31:45.346Z,100670.75
2022-08-17T15:34:11.983Z,100673.72
2022-08-17T15:36:49.102Z,100668.47
2022-08-17T15:39:19.569Z,100666.66
2022-08-17T15:41:47.376Z,100669.28
2022-08-17T15:44:32.537Z,100670.44
2022-08-17T15:47:02.085Z,100660.78
2022-08-17T15:49:28.691Z,100671.19
2022-08-17T15:51:55.319Z,100669.09
2022-08-17T15:54:22.764Z,100670.97
2022-08-17T15:56:50.204Z,100666.13
2022-08-17T15:59:16.889Z,100665.00
2022-08-17T16:03:01.129Z,100670.91
2022-08-17T16:04:31.733Z,100676.66
2022-08-17T16:06:59.782Z,100686.69
2022-08-17T16:09:26.945Z,100677.84
2022-08-17T16:11:56.165Z,100674.47
2022-08-17T16:14:29.505Z,100674.75
2022-08-17T16:17:00.803Z,100670.97
2022-08-17T16:19:27.426Z,100658.94
2022-08-17T16:21:54.059Z,100664.00
2022-08-17T16:24:20.674Z,100663.13
2022-08-17T16:26:47.363Z,100655.16
2022-08-17T16:29:14.072Z,100667.06
2022-08-17T16:31:41.873Z,100661.09
2022-08-17T16:34:15.694Z,100667.41
2022-08-17T16:36:53.608Z,100671.09
2022-08-17T16:39:28.084Z,100668.41
2022-08-17T16:41:56.171Z,100673.00
2022-08-17T16:44:23.528Z,100672.09
2022-08-17T16:46:50.509Z,100676.88
2022-08-17T16:49:35.146Z,100675.56
2022-08-17T16:52:10.691Z,100663.69
2022-08-17T16:54:39.525Z,100668.84
2022-08-17T16:57:06.389Z,100671.91
2022-08-17T16:59:40.981Z,100670.88
2022-08-17T17:02:13.156Z,100667.38
2022-08-17T17:04:57.865Z,100672.31
2022-08-17T17:07:40.174Z,100669.69
2022-08-17T17:10:14.741Z,100672.91
2022-08-17T17:13:03.236Z,100661.19
2022-08-17T17:15:37.398Z,100668.13
2022-08-17T17:18:06.820Z,100671.66
2022-08-17T17:20:54.077Z,100674.59
2022-08-17T17:23:41.882Z,100669.59
2022-08-17T17:26:35.156Z,100670.63
2022-08-17T17:29:07.938Z,100668.00
2022-08-17T17:31:48.054Z,100670.47
2022-08-17T17:34:16.594Z,100672.88
2022-08-17T17:36:50.179Z,100671.38
2022-08-17T17:39:31.787Z,100671.31
2022-08-17T18:33:11.042Z,100689.78
2022-08-17T18:35:58.787Z,100687.31
2022-08-17T18:39:11.846Z,100700.00
2022-08-17T18:41:50.593Z,100695.50
2022-08-17T18:44:37.753Z,100696.66
2022-08-17T18:47:13.969Z,100698.75
2022-08-17T18:49:43.209Z,100691.06
2022-08-17T18:52:24.712Z,100693.72
2022-08-17T18:55:14.447Z,100694.44
2022-08-17T18:58:11.744Z,100695.75
2022-08-17T19:04:12.204Z,100688.38
2022-08-17T19:19:35.140Z,100716.06
2022-08-17T19:22:27.024Z,100711.25
2022-08-17T19:25:17.037Z,100706.88
2022-08-17T19:30:41.428Z,100708.88
2022-08-17T19:33:10.643Z,100708.78
2022-08-17T19:35:47.526Z,100717.84
2022-08-17T19:38:34.213Z,100720.00
2022-08-17T19:41:32.926Z,100716.78
2022-08-17T19:44:21.726Z,100718.94
2022-08-17T19:47:53.190Z,100711.59
2022-08-17T19:56:46.179Z,100714.16
2022-08-17T19:59:12.810Z,100711.78
2022-08-17T20:02:03.361Z,100722.34
2022-08-17T20:04:32.460Z,100713.78
2022-08-17T20:07:17.839Z,100704.66
2022-08-17T20:09:51.601Z,100713.66
2022-08-17T20:12:22.171Z,100715.69
2022-08-17T20:15:04.985Z,100702.91
2022-08-17T20:48:36.473Z,100729.13
2022-08-17T21:03:13.337Z,100725.97
2022-08-17T21:21:17.558Z,100720.00
2022-08-17T21:24:06.699Z,100729.25
2022-08-17T21:26:50.762Z,100720.00
2022-08-17T21:32:30.085Z,100707.81
2022-08-17T21:38:02.994Z,100731.41
2022-08-17T21:40:32.276Z,100739.38
2022-08-17T21:46:02.644Z,100729.09
2022-08-17T21:48:32.429Z,100728.88
2022-08-17T21:51:18.416Z,100725.41
2022-08-17T21:53:55.895Z,100726.22
2022-08-17T21:56:29.532Z,100728.81
2022-08-17T21:59:06.332Z,100722.47
2022-08-17T22:01:43.334Z,100724.53
2022-08-17T22:18:47.962Z,100723.81
2022-08-17T22:24:34.491Z,100725.53
2022-08-17T22:27:11.013Z,100726.13
2022-08-17T22:29:57.580Z,100722.09
2022-08-17T22:32:34.588Z,100731.06
2022-08-17T22:35:34.758Z,100722.75
2022-08-17T22:41:17.633Z,100725.44
2022-08-17T22:43:44.761Z,100726.78
2022-08-17T22:46:12.434Z,100712.69
2022-08-17T22:48:48.589Z,100722.66
2022-08-17T22:51:21.305Z,100716.00
2022-08-17T22:54:10.203Z,100719.75
2022-08-17T22:56:55.842Z,100709.28
2022-08-17T22:59:36.298Z,100711.78
2022-08-17T23:02:21.540Z,100704.97
2022-08-17T23:05:13.842Z,100706.81
2022-08-17T23:07:44.159Z,100713.91
2022-08-17T23:10:12.865Z,100716.03
2022-08-17T23:12:39.877Z,100703.56
2022-08-17T23:15:16.726Z,100708.78
2022-08-17T23:17:45.290Z,100711.94
2022-08-17T23:20:14.134Z,100712.28
2022-08-17T23:22:51.328Z,100711.84
2022-08-17T23:25:26.447Z,100714.34
2022-08-17T23:27:53.674Z,100715.69
2022-08-17T23:30:20.483Z,100719.59
2022-08-17T23:32:53.639Z,100720.09
2022-08-17T23:35:20.889Z,100723.09
2022-08-17T23:38:08.994Z,100719.78
2022-08-17T23:40:35.744Z,100714.03
2022-08-17T23:43:11.514Z,100710.41
2022-08-17T23:45:53.853Z,100704.28
2022-08-17T23:48:36.159Z,100696.81
2022-08-17T23:51:08.817Z,100700.31
2022-08-17T23:53:37.200Z,100704.78
2022-08-17T23:56:10.275Z,100691.06
2022-08-17T23:58:39.030Z,100698.66
